sensor_id;sensor_type;location;lat;lon;timestamp;P1;durP1;ratioP1;P2;durP2;ratioP2
65182;SDS011;51771;51.068;-1.780;2023-06-14T00:00:20;6.50;;;3.20;;
65182;SDS011;51771;51.068;-1.780;2023-06-14T00:02:46;6.32;;;3.20;;
65182;SDS011;51771;51.068;-1.780;2023-06-14T00:05:11;6.95;;;3.45;;
65182;SDS011;51771;51.068;-1.780;2023-06-14T00:07:40;6.47;;;3.63;;
65182;SDS011;51771;51.068;-1.780;2023-06-14T00:10:08;7.63;;;3.47;;
65182;SDS011;51771;51.068;-1.780;2023-06-14T00:12:34;8.45;;;3.90;;
65182;SDS011;51771;51.068;-1.780;2023-06-14T00:14:59;6.93;;;3.40;;
65182;SDS011;51771;51.068;-1.780;2023-06-14T00:17:26;8.55;;;3.25;;
65182;SDS011;51771;51.068;-1.780;2023-06-14T00:19:55;5.95;;;3.08;;
65182;SDS011;51771;51.068;-1.780;2023-06-14T00:22:21;6.05;;;3.10;;
65182;SDS011;51771;51.068;-1.780;2023-06-14T00:24:49;8.55;;;3.45;;
65182;SDS011;51771;51.068;-1.780;2023-06-14T00:27:15;6.40;;;3.80;;
65182;SDS011;51771;51.068;-1.780;2023-06-14T00:29:40;7.65;;;3.67;;
65182;SDS011;51771;51.068;-1.780;2023-06-14T00:32:06;7.82;;;3.10;;
65182;SDS011;51771;51.068;-1.780;2023-06-14T00:34:31;8.88;;;3.20;;
65182;SDS011;51771;51.068;-1.780;2023-06-14T00:36:56;7.38;;;3.60;;
65182;SDS011;51771;51.068;-1.780;2023-06-14T00:39:22;6.73;;;3.23;;
65182;SDS011;51771;51.068;-1.780;2023-06-14T00:41:47;6.43;;;3.33;;
65182;SDS011;51771;51.068;-1.780;2023-06-14T00:44:12;5.77;;;2.97;;
65182;SDS011;51771;51.068;-1.780;2023-06-14T00:46:39;6.78;;;3.03;;
65182;SDS011;51771;51.068;-1.780;2023-06-14T00:49:05;6.70;;;2.97;;
65182;SDS011;51771;51.068;-1.780;2023-06-14T00:51:31;6.75;;;3.28;;
65182;SDS011;51771;51.068;-1.780;2023-06-14T00:53:56;6.60;;;3.17;;
65182;SDS011;51771;51.068;-1.780;2023-06-14T00:56:21;7.40;;;3.78;;
65182;SDS011;51771;51.068;-1.780;2023-06-14T00:58:49;9.38;;;3.65;;
65182;SDS011;51771;51.068;-1.780;2023-06-14T01:01:15;8.20;;;3.58;;
65182;SDS011;51771;51.068;-1.780;2023-06-14T01:03:41;6.80;;;3.23;;
65182;SDS011;51771;51.068;-1.780;2023-06-14T01:07:08;7.17;;;3.20;;
65182;SDS011;51771;51.068;-1.780;2023-06-14T01:09:03;7.20;;;3.85;;
65182;SDS011;51771;51.068;-1.780;2023-06-14T01:11:31;6.43;;;3.30;;
65182;SDS011;51771;51.068;-1.780;2023-06-14T01:13:58;7.68;;;3.15;;
65182;SDS011;51771;51.068;-1.780;2023-06-14T01:16:24;7.68;;;3.70;;
65182;SDS011;51771;51.068;-1.780;2023-06-14T01:18:51;6.67;;;2.80;;
65182;SDS011;51771;51.068;-1.780;2023-06-14T01:21:20;7.28;;;3.45;;
65182;SDS011;51771;51.068;-1.780;2023-06-14T01:23:45;8.60;;;3.17;;
65182;SDS011;51771;51.068;-1.780;2023-06-14T01:26:17;6.90;;;3.08;;
65182;SDS011;51771;51.068;-1.780;2023-06-14T01:28:43;6.15;;;3.47;;
65182;SDS011;51771;51.068;-1.780;2023-06-14T01:31:13;6.60;;;3.40;;
65182;SDS011;51771;51.068;-1.780;2023-06-14T01:33:41;6.65;;;3.05;;
65182;SDS011;51771;51.068;-1.780;2023-06-14T01:36:06;5.93;;;3.30;;
65182;SDS011;51771;51.068;-1.780;2023-06-14T01:38:33;8.75;;;3.83;;
65182;SDS011;51771;51.068;-1.780;2023-06-14T01:40:58;6.97;;;3.20;;
65182;SDS011;51771;51.068;-1.780;2023-06-14T01:43:24;7.97;;;3.22;;
65182;SDS011;51771;51.068;-1.780;2023-06-14T01:45:50;6.63;;;3.30;;
65182;SDS011;51771;51.068;-1.780;2023-06-14T01:48:16;6.25;;;3.22;;
65182;SDS011;51771;51.068;-1.780;2023-06-14T01:50:41;7.07;;;3.42;;
65182;SDS011;51771;51.068;-1.780;2023-06-14T01:53:07;7.30;;;3.43;;
65182;SDS011;51771;51.068;-1.780;2023-06-14T01:55:32;10.35;;;3.35;;
65182;SDS011;51771;51.068;-1.780;2023-06-14T01:58:02;6.35;;;3.30;;
65182;SDS011;51771;51.068;-1.780;2023-06-14T02:00:27;6.18;;;2.50;;
65182;SDS011;51771;51.068;-1.780;2023-06-14T02:02:52;6.70;;;3.13;;
65182;SDS011;51771;51.068;-1.780;2023-06-14T02:05:18;6.35;;;3.17;;
65182;SDS011;51771;51.068;-1.780;2023-06-14T02:07:44;6.32;;;3.28;;
65182;SDS011;51771;51.068;-1.780;2023-06-14T02:10:10;7.45;;;3.53;;
65182;SDS011;51771;51.068;-1.780;2023-06-14T02:12:35;7.57;;;3.08;;
65182;SDS011;51771;51.068;-1.780;2023-06-14T02:15:01;5.13;;;2.95;;
65182;SDS011;51771;51.068;-1.780;2023-06-14T02:17:26;6.30;;;2.55;;
65182;SDS011;51771;51.068;-1.780;2023-06-14T02:19:51;5.55;;;2.33;;
65182;SDS011;51771;51.068;-1.780;2023-06-14T02:22:17;6.93;;;2.70;;
65182;SDS011;51771;51.068;-1.780;2023-06-14T02:24:42;6.30;;;2.50;;
65182;SDS011;51771;51.068;-1.780;2023-06-14T02:27:07;5.35;;;2.55;;
65182;SDS011;51771;51.068;-1.780;2023-06-14T02:29:35;7.00;;;3.35;;
65182;SDS011;51771;51.068;-1.780;2023-06-14T02:32:00;5.53;;;2.78;;
65182;SDS011;51771;51.068;-1.780;2023-06-14T02:34:26;6.67;;;3.03;;
65182;SDS011;51771;51.068;-1.780;2023-06-14T02:36:51;9.55;;;2.85;;
65182;SDS011;51771;51.068;-1.780;2023-06-14T02:39:17;6.07;;;2.70;;
65182;SDS011;51771;51.068;-1.780;2023-06-14T02:41:45;10.27;;;3.47;;
65182;SDS011;51771;51.068;-1.780;2023-06-14T02:44:12;5.40;;;2.58;;
65182;SDS011;51771;51.068;-1.780;2023-06-14T02:46:38;4.95;;;2.40;;
65182;SDS011;51771;51.068;-1.780;2023-06-14T02:49:03;5.60;;;3.07;;
65182;SDS011;51771;51.068;-1.780;2023-06-14T02:51:28;5.03;;;2.03;;
65182;SDS011;51771;51.068;-1.780;2023-06-14T02:53:53;5.10;;;2.57;;
65182;SDS011;51771;51.068;-1.780;2023-06-14T02:56:19;7.37;;;2.57;;
65182;SDS011;51771;51.068;-1.780;2023-06-14T02:58:44;5.03;;;2.63;;
65182;SDS011;51771;51.068;-1.780;2023-06-14T03:01:09;6.18;;;2.60;;
65182;SDS011;51771;51.068;-1.780;2023-06-14T03:03:38;6.78;;;2.40;;
65182;SDS011;51771;51.068;-1.780;2023-06-14T03:06:03;6.93;;;2.05;;
65182;SDS011;51771;51.068;-1.780;2023-06-14T03:08:30;6.50;;;2.95;;
65182;SDS011;51771;51.068;-1.780;2023-06-14T03:10:56;7.18;;;3.25;;
65182;SDS011;51771;51.068;-1.780;2023-06-14T03:13:22;5.60;;;2.67;;
65182;SDS011;51771;51.068;-1.780;2023-06-14T03:15:48;4.72;;;2.58;;
65182;SDS011;51771;51.068;-1.780;2023-06-14T03:18:15;5.75;;;2.50;;
65182;SDS011;51771;51.068;-1.780;2023-06-14T03:20:41;5.55;;;2.95;;
65182;SDS011;51771;51.068;-1.780;2023-06-14T03:23:07;8.80;;;2.42;;
65182;SDS011;51771;51.068;-1.780;2023-06-14T03:25:32;5.10;;;2.40;;
65182;SDS011;51771;51.068;-1.780;2023-06-14T03:28:03;5.60;;;2.42;;
65182;SDS011;51771;51.068;-1.780;2023-06-14T03:30:29;4.95;;;2.78;;
65182;SDS011;51771;51.068;-1.780;2023-06-14T03:32:54;5.95;;;2.83;;
65182;SDS011;51771;51.068;-1.780;2023-06-14T03:35:21;6.38;;;3.08;;
65182;SDS011;51771;51.068;-1.780;2023-06-14T03:37:46;6.25;;;2.45;;
65182;SDS011;51771;51.068;-1.780;2023-06-14T03:40:12;5.18;;;2.55;;
65182;SDS011;51771;51.068;-1.780;2023-06-14T03:42:38;5.68;;;2.75;;
65182;SDS011;51771;51.068;-1.780;2023-06-14T03:45:04;6.38;;;2.63;;
65182;SDS011;51771;51.068;-1.780;2023-06-14T03:47:33;5.53;;;2.20;;
65182;SDS011;51771;51.068;-1.780;2023-06-14T03:49:58;5.80;;;2.28;;
65182;SDS011;51771;51.068;-1.780;2023-06-14T03:52:27;4.97;;;1.88;;
65182;SDS011;51771;51.068;-1.780;2023-06-14T03:54:58;5.78;;;2.70;;
65182;SDS011;51771;51.068;-1.780;2023-06-14T03:57:25;6.70;;;2.72;;
65182;SDS011;51771;51.068;-1.780;2023-06-14T03:59:51;7.32;;;2.60;;
65182;SDS011;51771;51.068;-1.780;2023-06-14T04:02:16;6.00;;;2.40;;
65182;SDS011;51771;51.068;-1.780;2023-06-14T04:04:42;6.35;;;2.25;;
65182;SDS011;51771;51.068;-1.780;2023-06-14T04:07:11;5.60;;;2.13;;
65182;SDS011;51771;51.068;-1.780;2023-06-14T04:09:36;4.63;;;1.80;;
65182;SDS011;51771;51.068;-1.780;2023-06-14T04:12:02;5.65;;;2.13;;
65182;SDS011;51771;51.068;-1.780;2023-06-14T04:14:27;6.47;;;2.72;;
65182;SDS011;51771;51.068;-1.780;2023-06-14T04:16:52;4.63;;;2.20;;
65182;SDS011;51771;51.068;-1.780;2023-06-14T04:19:17;5.50;;;2.57;;
65182;SDS011;51771;51.068;-1.780;2023-06-14T04:21:43;4.10;;;2.15;;
65182;SDS011;51771;51.068;-1.780;2023-06-14T04:24:08;5.90;;;2.20;;
65182;SDS011;51771;51.068;-1.780;2023-06-14T04:26:39;5.22;;;2.17;;
65182;SDS011;51771;51.068;-1.780;2023-06-14T04:29:04;4.75;;;2.17;;
65182;SDS011;51771;51.068;-1.780;2023-06-14T04:31:30;5.53;;;2.17;;
65182;SDS011;51771;51.068;-1.780;2023-06-14T04:36:24;5.03;;;2.22;;
65182;SDS011;51771;51.068;-1.780;2023-06-14T04:38:50;5.95;;;2.30;;
65182;SDS011;51771;51.068;-1.780;2023-06-14T04:41:19;5.65;;;2.25;;
65182;SDS011;51771;51.068;-1.780;2023-06-14T04:43:44;4.88;;;1.88;;
65182;SDS011;51771;51.068;-1.780;2023-06-14T04:46:13;5.00;;;2.25;;
65182;SDS011;51771;51.068;-1.780;2023-06-14T04:48:40;4.35;;;1.70;;
65182;SDS011;51771;51.068;-1.780;2023-06-14T04:51:10;6.32;;;2.47;;
65182;SDS011;51771;51.068;-1.780;2023-06-14T04:56:01;4.00;;;1.83;;
65182;SDS011;51771;51.068;-1.780;2023-06-14T04:58:26;6.03;;;2.10;;
65182;SDS011;51771;51.068;-1.780;2023-06-14T05:00:52;5.97;;;1.98;;
65182;SDS011;51771;51.068;-1.780;2023-06-14T05:03:18;4.93;;;1.90;;
65182;SDS011;51771;51.068;-1.780;2023-06-14T05:05:46;9.35;;;2.00;;
65182;SDS011;51771;51.068;-1.780;2023-06-14T05:08:11;5.15;;;2.15;;
65182;SDS011;51771;51.068;-1.780;2023-06-14T05:10:36;3.47;;;1.60;;
65182;SDS011;51771;51.068;-1.780;2023-06-14T05:13:01;5.35;;;1.80;;
65182;SDS011;51771;51.068;-1.780;2023-06-14T05:15:27;6.22;;;1.83;;
65182;SDS011;51771;51.068;-1.780;2023-06-14T05:17:54;4.40;;;1.75;;
65182;SDS011;51771;51.068;-1.780;2023-06-14T05:20:21;6.78;;;2.15;;
65182;SDS011;51771;51.068;-1.780;2023-06-14T05:22:48;5.50;;;2.45;;
65182;SDS011;51771;51.068;-1.780;2023-06-14T05:25:15;4.13;;;1.67;;
65182;SDS011;51771;51.068;-1.780;2023-06-14T05:27:40;6.85;;;2.50;;
65182;SDS011;51771;51.068;-1.780;2023-06-14T05:30:07;3.97;;;1.73;;
65182;SDS011;51771;51.068;-1.780;2023-06-14T05:32:33;4.53;;;1.67;;
65182;SDS011;51771;51.068;-1.780;2023-06-14T05:34:58;3.83;;;1.65;;
65182;SDS011;51771;51.068;-1.780;2023-06-14T05:37:23;6.20;;;2.10;;
65182;SDS011;51771;51.068;-1.780;2023-06-14T05:39:48;5.47;;;2.07;;
65182;SDS011;51771;51.068;-1.780;2023-06-14T05:42:14;6.43;;;1.55;;
65182;SDS011;51771;51.068;-1.780;2023-06-14T05:44:39;4.30;;;1.90;;
65182;SDS011;51771;51.068;-1.780;2023-06-14T05:47:05;4.55;;;1.60;;
65182;SDS011;51771;51.068;-1.780;2023-06-14T05:49:30;7.68;;;1.80;;
65182;SDS011;51771;51.068;-1.780;2023-06-14T05:51:56;4.50;;;1.65;;
65182;SDS011;51771;51.068;-1.780;2023-06-14T05:54:21;5.07;;;1.77;;
65182;SDS011;51771;51.068;-1.780;2023-06-14T05:56:46;3.20;;;1.47;;
65182;SDS011;51771;51.068;-1.780;2023-06-14T05:59:11;5.17;;;1.80;;
65182;SDS011;51771;51.068;-1.780;2023-06-14T06:01:36;3.92;;;1.60;;
65182;SDS011;51771;51.068;-1.780;2023-06-14T06:04:02;5.65;;;2.13;;
65182;SDS011;51771;51.068;-1.780;2023-06-14T06:06:27;8.77;;;2.10;;
65182;SDS011;51771;51.068;-1.780;2023-06-14T06:08:53;5.55;;;1.77;;
65182;SDS011;51771;51.068;-1.780;2023-06-14T06:11:19;5.18;;;1.83;;
65182;SDS011;51771;51.068;-1.780;2023-06-14T06:13:45;4.25;;;1.70;;
65182;SDS011;51771;51.068;-1.780;2023-06-14T06:16:10;4.17;;;1.33;;
65182;SDS011;51771;51.068;-1.780;2023-06-14T06:18:36;3.67;;;1.48;;
65182;SDS011;51771;51.068;-1.780;2023-06-14T06:21:03;6.57;;;1.80;;
65182;SDS011;51771;51.068;-1.780;2023-06-14T06:23:46;4.15;;;1.40;;
65182;SDS011;51771;51.068;-1.780;2023-06-14T06:26:11;4.97;;;1.92;;
65182;SDS011;51771;51.068;-1.780;2023-06-14T06:28:36;4.37;;;1.60;;
65182;SDS011;51771;51.068;-1.780;2023-06-14T06:31:01;4.47;;;1.42;;
65182;SDS011;51771;51.068;-1.780;2023-06-14T06:33:28;4.80;;;1.80;;
65182;SDS011;51771;51.068;-1.780;2023-06-14T06:35:53;6.27;;;1.40;;
65182;SDS011;51771;51.068;-1.780;2023-06-14T06:38:18;5.22;;;1.80;;
65182;SDS011;51771;51.068;-1.780;2023-06-14T06:40:44;6.05;;;1.83;;
65182;SDS011;51771;51.068;-1.780;2023-06-14T06:43:09;5.55;;;1.90;;
65182;SDS011;51771;51.068;-1.780;2023-06-14T06:45:34;6.15;;;1.90;;
65182;SDS011;51771;51.068;-1.780;2023-06-14T06:47:59;5.47;;;1.40;;
65182;SDS011;51771;51.068;-1.780;2023-06-14T06:50:25;3.92;;;1.50;;
65182;SDS011;51771;51.068;-1.780;2023-06-14T06:52:50;6.88;;;1.92;;
65182;SDS011;51771;51.068;-1.780;2023-06-14T06:55:16;3.80;;;1.25;;
65182;SDS011;51771;51.068;-1.780;2023-06-14T06:57:41;3.75;;;1.42;;
65182;SDS011;51771;51.068;-1.780;2023-06-14T07:00:07;3.80;;;1.40;;
65182;SDS011;51771;51.068;-1.780;2023-06-14T07:02:35;4.32;;;1.45;;
65182;SDS011;51771;51.068;-1.780;2023-06-14T07:05:01;4.38;;;1.55;;
65182;SDS011;51771;51.068;-1.780;2023-06-14T07:07:26;3.63;;;1.37;;
65182;SDS011;51771;51.068;-1.780;2023-06-14T07:09:51;3.97;;;1.57;;
65182;SDS011;51771;51.068;-1.780;2023-06-14T07:12:17;5.80;;;2.03;;
65182;SDS011;51771;51.068;-1.780;2023-06-14T07:14:43;3.40;;;1.42;;
65182;SDS011;51771;51.068;-1.780;2023-06-14T07:17:08;4.10;;;1.87;;
65182;SDS011;51771;51.068;-1.780;2023-06-14T07:19:33;6.73;;;1.70;;
65182;SDS011;51771;51.068;-1.780;2023-06-14T07:21:58;3.67;;;1.47;;
65182;SDS011;51771;51.068;-1.780;2023-06-14T07:24:24;3.97;;;1.35;;
65182;SDS011;51771;51.068;-1.780;2023-06-14T07:26:49;5.63;;;2.05;;
65182;SDS011;51771;51.068;-1.780;2023-06-14T07:29:14;4.43;;;1.27;;
65182;SDS011;51771;51.068;-1.780;2023-06-14T07:31:39;4.97;;;1.73;;
65182;SDS011;51771;51.068;-1.780;2023-06-14T07:34:05;3.87;;;1.37;;
65182;SDS011;51771;51.068;-1.780;2023-06-14T07:36:30;5.47;;;1.55;;
65182;SDS011;51771;51.068;-1.780;2023-06-14T07:38:55;5.30;;;1.43;;
65182;SDS011;51771;51.068;-1.780;2023-06-14T07:41:21;4.38;;;1.38;;
65182;SDS011;51771;51.068;-1.780;2023-06-14T07:43:46;5.40;;;2.00;;
65182;SDS011;51771;51.068;-1.780;2023-06-14T07:46:11;5.20;;;1.57;;
65182;SDS011;51771;51.068;-1.780;2023-06-14T07:48:36;4.88;;;1.50;;
65182;SDS011;51771;51.068;-1.780;2023-06-14T07:51:02;4.72;;;1.48;;
65182;SDS011;51771;51.068;-1.780;2023-06-14T07:53:27;5.93;;;2.00;;
65182;SDS011;51771;51.068;-1.780;2023-06-14T07:55:53;4.38;;;1.45;;
65182;SDS011;51771;51.068;-1.780;2023-06-14T07:58:18;6.03;;;1.47;;
65182;SDS011;51771;51.068;-1.780;2023-06-14T08:00:43;3.28;;;1.38;;
65182;SDS011;51771;51.068;-1.780;2023-06-14T08:03:08;4.20;;;1.53;;
65182;SDS011;51771;51.068;-1.780;2023-06-14T08:05:33;3.97;;;1.37;;
65182;SDS011;51771;51.068;-1.780;2023-06-14T08:07:59;5.57;;;1.60;;
65182;SDS011;51771;51.068;-1.780;2023-06-14T08:10:25;3.33;;;1.40;;
65182;SDS011;51771;51.068;-1.780;2023-06-14T08:12:50;4.80;;;1.63;;
65182;SDS011;51771;51.068;-1.780;2023-06-14T08:15:18;5.27;;;1.83;;
65182;SDS011;51771;51.068;-1.780;2023-06-14T08:17:43;4.07;;;1.60;;
65182;SDS011;51771;51.068;-1.780;2023-06-14T08:20:09;4.22;;;1.50;;
65182;SDS011;51771;51.068;-1.780;2023-06-14T08:22:34;8.10;;;1.58;;
65182;SDS011;51771;51.068;-1.780;2023-06-14T08:25:00;5.35;;;1.50;;
65182;SDS011;51771;51.068;-1.780;2023-06-14T08:27:26;4.53;;;1.55;;
65182;SDS011;51771;51.068;-1.780;2023-06-14T08:29:51;5.25;;;1.48;;
65182;SDS011;51771;51.068;-1.780;2023-06-14T08:32:16;5.27;;;1.37;;
65182;SDS011;51771;51.068;-1.780;2023-06-14T08:34:42;3.97;;;1.45;;
65182;SDS011;51771;51.068;-1.780;2023-06-14T08:37:07;5.00;;;1.63;;
65182;SDS011;51771;51.068;-1.780;2023-06-14T08:39:32;3.55;;;1.38;;
65182;SDS011;51771;51.068;-1.780;2023-06-14T08:41:57;4.73;;;1.57;;
65182;SDS011;51771;51.068;-1.780;2023-06-14T08:44:23;4.28;;;1.80;;
65182;SDS011;51771;51.068;-1.780;2023-06-14T08:46:48;3.70;;;1.43;;
65182;SDS011;51771;51.068;-1.780;2023-06-14T08:49:13;4.00;;;1.57;;
65182;SDS011;51771;51.068;-1.780;2023-06-14T08:51:41;3.60;;;1.42;;
65182;SDS011;51771;51.068;-1.780;2023-06-14T08:54:08;5.93;;;1.75;;
65182;SDS011;51771;51.068;-1.780;2023-06-14T08:56:34;4.15;;;1.70;;
65182;SDS011;51771;51.068;-1.780;2023-06-14T08:59:02;5.30;;;2.00;;
65182;SDS011;51771;51.068;-1.780;2023-06-14T09:01:34;4.43;;;1.83;;
65182;SDS011;51771;51.068;-1.780;2023-06-14T09:04:00;6.68;;;1.50;;
65182;SDS011;51771;51.068;-1.780;2023-06-14T09:06:27;4.97;;;1.80;;
65182;SDS011;51771;51.068;-1.780;2023-06-14T09:08:53;4.55;;;1.60;;
65182;SDS011;51771;51.068;-1.780;2023-06-14T09:11:18;3.50;;;1.40;;
65182;SDS011;51771;51.068;-1.780;2023-06-14T09:13:44;3.40;;;1.30;;
65182;SDS011;51771;51.068;-1.780;2023-06-14T09:16:10;4.43;;;1.63;;
65182;SDS011;51771;51.068;-1.780;2023-06-14T09:18:36;4.00;;;1.33;;
65182;SDS011;51771;51.068;-1.780;2023-06-14T09:21:01;3.60;;;1.50;;
65182;SDS011;51771;51.068;-1.780;2023-06-14T09:23:27;4.38;;;1.60;;
65182;SDS011;51771;51.068;-1.780;2023-06-14T09:25:52;3.93;;;1.40;;
65182;SDS011;51771;51.068;-1.780;2023-06-14T09:28:17;5.05;;;1.48;;
65182;SDS011;51771;51.068;-1.780;2023-06-14T09:30:42;4.15;;;1.38;;
65182;SDS011;51771;51.068;-1.780;2023-06-14T09:33:08;4.53;;;1.90;;
65182;SDS011;51771;51.068;-1.780;2023-06-14T09:35:33;4.87;;;1.73;;
65182;SDS011;51771;51.068;-1.780;2023-06-14T09:37:58;4.63;;;1.77;;
65182;SDS011;51771;51.068;-1.780;2023-06-14T09:40:24;3.83;;;1.60;;
65182;SDS011;51771;51.068;-1.780;2023-06-14T09:42:49;3.53;;;1.58;;
65182;SDS011;51771;51.068;-1.780;2023-06-14T09:45:15;5.10;;;1.77;;
65182;SDS011;51771;51.068;-1.780;2023-06-14T09:47:46;5.43;;;1.98;;
65182;SDS011;51771;51.068;-1.780;2023-06-14T09:50:12;8.27;;;2.30;;
65182;SDS011;51771;51.068;-1.780;2023-06-14T09:52:37;6.95;;;1.60;;
65182;SDS011;51771;51.068;-1.780;2023-06-14T09:55:04;5.22;;;1.80;;
65182;SDS011;51771;51.068;-1.780;2023-06-14T09:57:34;5.00;;;2.08;;
65182;SDS011;51771;51.068;-1.780;2023-06-14T10:00:00;3.45;;;1.50;;
65182;SDS011;51771;51.068;-1.780;2023-06-14T10:02:34;3.90;;;1.45;;
65182;SDS011;51771;51.068;-1.780;2023-06-14T10:05:11;3.90;;;1.70;;
65182;SDS011;51771;51.068;-1.780;2023-06-14T10:07:40;5.15;;;2.03;;
65182;SDS011;51771;51.068;-1.780;2023-06-14T10:10:06;5.05;;;2.08;;
65182;SDS011;51771;51.068;-1.780;2023-06-14T10:12:31;4.07;;;1.63;;
65182;SDS011;51771;51.068;-1.780;2023-06-14T10:14:56;5.30;;;1.95;;
65182;SDS011;51771;51.068;-1.780;2023-06-14T10:17:27;4.70;;;2.00;;
65182;SDS011;51771;51.068;-1.780;2023-06-14T10:20:19;5.63;;;2.00;;
65182;SDS011;51771;51.068;-1.780;2023-06-14T10:22:43;4.40;;;1.90;;
65182;SDS011;51771;51.068;-1.780;2023-06-14T10:25:13;4.00;;;1.80;;
65182;SDS011;51771;51.068;-1.780;2023-06-14T10:27:50;5.15;;;2.10;;
65182;SDS011;51771;51.068;-1.780;2023-06-14T10:30:16;4.85;;;1.90;;
65182;SDS011;51771;51.068;-1.780;2023-06-14T10:33:02;4.87;;;2.30;;
65182;SDS011;51771;51.068;-1.780;2023-06-14T10:35:28;5.03;;;2.33;;
65182;SDS011;51771;51.068;-1.780;2023-06-14T10:37:53;3.80;;;1.73;;
65182;SDS011;51771;51.068;-1.780;2023-06-14T10:40:29;5.10;;;2.25;;
65182;SDS011;51771;51.068;-1.780;2023-06-14T10:42:55;4.43;;;2.13;;
65182;SDS011;51771;51.068;-1.780;2023-06-14T10:45:20;3.77;;;1.90;;
65182;SDS011;51771;51.068;-1.780;2023-06-14T10:47:45;5.43;;;2.30;;
65182;SDS011;51771;51.068;-1.780;2023-06-14T10:50:14;5.95;;;2.35;;
65182;SDS011;51771;51.068;-1.780;2023-06-14T10:52:42;6.72;;;2.30;;
65182;SDS011;51771;51.068;-1.780;2023-06-14T10:55:11;7.07;;;2.40;;
65182;SDS011;51771;51.068;-1.780;2023-06-14T10:57:38;4.22;;;2.10;;
65182;SDS011;51771;51.068;-1.780;2023-06-14T11:00:04;6.75;;;2.20;;
65182;SDS011;51771;51.068;-1.780;2023-06-14T11:05:05;4.27;;;2.20;;
65182;SDS011;51771;51.068;-1.780;2023-06-14T11:12:37;5.43;;;2.20;;
65182;SDS011;51771;51.068;-1.780;2023-06-14T11:15:05;5.63;;;2.40;;
65182;SDS011;51771;51.068;-1.780;2023-06-14T11:17:30;4.57;;;1.90;;
65182;SDS011;51771;51.068;-1.780;2023-06-14T11:20:11;5.45;;;2.10;;
65182;SDS011;51771;51.068;-1.780;2023-06-14T11:22:41;5.97;;;2.60;;
65182;SDS011;51771;51.068;-1.780;2023-06-14T11:25:11;4.82;;;2.38;;
65182;SDS011;51771;51.068;-1.780;2023-06-14T11:27:36;4.72;;;1.95;;
65182;SDS011;51771;51.068;-1.780;2023-06-14T11:30:01;7.23;;;2.57;;
65182;SDS011;51771;51.068;-1.780;2023-06-14T11:32:27;6.10;;;2.05;;
65182;SDS011;51771;51.068;-1.780;2023-06-14T11:34:52;5.27;;;2.23;;
65182;SDS011;51771;51.068;-1.780;2023-06-14T11:37:17;6.00;;;2.50;;
65182;SDS011;51771;51.068;-1.780;2023-06-14T11:39:43;4.93;;;2.63;;
65182;SDS011;51771;51.068;-1.780;2023-06-14T11:42:08;6.53;;;2.83;;
65182;SDS011;51771;51.068;-1.780;2023-06-14T11:44:38;5.50;;;2.13;;
65182;SDS011;51771;51.068;-1.780;2023-06-14T11:47:03;5.53;;;2.60;;
65182;SDS011;51771;51.068;-1.780;2023-06-14T11:49:28;4.80;;;1.98;;
65182;SDS011;51771;51.068;-1.780;2023-06-14T11:51:54;5.32;;;2.35;;
65182;SDS011;51771;51.068;-1.780;2023-06-14T11:54:19;4.93;;;2.03;;
65182;SDS011;51771;51.068;-1.780;2023-06-14T11:56:44;6.93;;;2.50;;
65182;SDS011;51771;51.068;-1.780;2023-06-14T11:59:10;5.38;;;2.50;;
65182;SDS011;51771;51.068;-1.780;2023-06-14T12:01:35;4.73;;;2.23;;
65182;SDS011;51771;51.068;-1.780;2023-06-14T12:04:02;5.53;;;2.28;;
65182;SDS011;51771;51.068;-1.780;2023-06-14T12:06:29;6.07;;;2.42;;
65182;SDS011;51771;51.068;-1.780;2023-06-14T12:08:58;7.75;;;2.83;;
65182;SDS011;51771;51.068;-1.780;2023-06-14T12:11:23;5.28;;;2.45;;
65182;SDS011;51771;51.068;-1.780;2023-06-14T12:13:49;7.47;;;2.30;;
65182;SDS011;51771;51.068;-1.780;2023-06-14T12:16:14;4.30;;;2.20;;
65182;SDS011;51771;51.068;-1.780;2023-06-14T12:18:40;4.95;;;2.35;;
65182;SDS011;51771;51.068;-1.780;2023-06-14T12:21:06;7.18;;;2.22;;
65182;SDS011;51771;51.068;-1.780;2023-06-14T12:23:47;5.30;;;2.53;;
65182;SDS011;51771;51.068;-1.780;2023-06-14T12:26:13;4.88;;;2.45;;
65182;SDS011;51771;51.068;-1.780;2023-06-14T12:28:39;5.10;;;2.92;;
65182;SDS011;51771;51.068;-1.780;2023-06-14T12:31:05;6.38;;;2.50;;
65182;SDS011;51771;51.068;-1.780;2023-06-14T12:33:31;5.28;;;2.45;;
65182;SDS011;51771;51.068;-1.780;2023-06-14T12:35:56;7.13;;;2.50;;
65182;SDS011;51771;51.068;-1.780;2023-06-14T12:38:23;5.68;;;2.45;;
65182;SDS011;51771;51.068;-1.780;2023-06-14T12:40:48;6.70;;;2.58;;
65182;SDS011;51771;51.068;-1.780;2023-06-14T12:43:14;7.38;;;2.78;;
65182;SDS011;51771;51.068;-1.780;2023-06-14T12:45:39;8.10;;;2.20;;
65182;SDS011;51771;51.068;-1.780;2023-06-14T12:48:04;5.00;;;2.67;;
65182;SDS011;51771;51.068;-1.780;2023-06-14T12:50:30;7.05;;;2.70;;
65182;SDS011;51771;51.068;-1.780;2023-06-14T12:52:55;5.80;;;2.78;;
65182;SDS011;51771;51.068;-1.780;2023-06-14T12:55:20;4.97;;;2.50;;
65182;SDS011;51771;51.068;-1.780;2023-06-14T12:57:45;5.27;;;2.37;;
65182;SDS011;51771;51.068;-1.780;2023-06-14T13:00:11;6.10;;;2.73;;
65182;SDS011;51771;51.068;-1.780;2023-06-14T13:02:37;4.55;;;2.47;;
65182;SDS011;51771;51.068;-1.780;2023-06-14T13:05:03;5.80;;;2.38;;
65182;SDS011;51771;51.068;-1.780;2023-06-14T13:07:29;5.28;;;2.75;;
65182;SDS011;51771;51.068;-1.780;2023-06-14T13:09:54;6.22;;;2.65;;
65182;SDS011;51771;51.068;-1.780;2023-06-14T13:12:20;4.57;;;2.13;;
65182;SDS011;51771;51.068;-1.780;2023-06-14T13:14:45;5.43;;;2.88;;
65182;SDS011;51771;51.068;-1.780;2023-06-14T13:17:10;8.00;;;2.75;;
65182;SDS011;51771;51.068;-1.780;2023-06-14T13:19:36;4.60;;;2.53;;
65182;SDS011;51771;51.068;-1.780;2023-06-14T13:22:01;6.65;;;2.92;;
65182;SDS011;51771;51.068;-1.780;2023-06-14T13:24:26;7.10;;;2.80;;
65182;SDS011;51771;51.068;-1.780;2023-06-14T13:26:52;5.30;;;2.80;;
65182;SDS011;51771;51.068;-1.780;2023-06-14T13:29:17;4.47;;;2.47;;
65182;SDS011;51771;51.068;-1.780;2023-06-14T13:31:42;6.63;;;2.33;;
65182;SDS011;51771;51.068;-1.780;2023-06-14T13:34:07;5.77;;;2.73;;
65182;SDS011;51771;51.068;-1.780;2023-06-14T13:36:33;5.80;;;2.60;;
65182;SDS011;51771;51.068;-1.780;2023-06-14T13:38:59;4.47;;;2.65;;
65182;SDS011;51771;51.068;-1.780;2023-06-14T13:41:25;5.97;;;2.60;;
65182;SDS011;51771;51.068;-1.780;2023-06-14T13:43:56;6.05;;;2.95;;
65182;SDS011;51771;51.068;-1.780;2023-06-14T13:46:21;5.70;;;2.67;;
65182;SDS011;51771;51.068;-1.780;2023-06-14T13:48:46;5.83;;;2.73;;
65182;SDS011;51771;51.068;-1.780;2023-06-14T13:51:12;4.68;;;2.63;;
65182;SDS011;51771;51.068;-1.780;2023-06-14T13:53:37;5.63;;;2.90;;
65182;SDS011;51771;51.068;-1.780;2023-06-14T13:56:03;6.83;;;2.90;;
65182;SDS011;51771;51.068;-1.780;2023-06-14T13:58:28;5.40;;;2.72;;
65182;SDS011;51771;51.068;-1.780;2023-06-14T14:00:54;6.85;;;3.22;;
65182;SDS011;51771;51.068;-1.780;2023-06-14T14:03:19;5.85;;;2.92;;
65182;SDS011;51771;51.068;-1.780;2023-06-14T14:05:44;7.03;;;3.13;;
65182;SDS011;51771;51.068;-1.780;2023-06-14T14:08:10;6.03;;;2.80;;
65182;SDS011;51771;51.068;-1.780;2023-06-14T14:10:35;6.20;;;3.10;;
65182;SDS011;51771;51.068;-1.780;2023-06-14T14:13:00;6.57;;;3.13;;
65182;SDS011;51771;51.068;-1.780;2023-06-14T14:15:26;6.45;;;3.17;;
65182;SDS011;51771;51.068;-1.780;2023-06-14T14:17:52;7.13;;;2.50;;
65182;SDS011;51771;51.068;-1.780;2023-06-14T14:20:19;5.60;;;2.70;;
65182;SDS011;51771;51.068;-1.780;2023-06-14T14:22:44;4.88;;;2.45;;
65182;SDS011;51771;51.068;-1.780;2023-06-14T14:25:10;5.65;;;2.95;;
65182;SDS011;51771;51.068;-1.780;2023-06-14T14:27:35;6.03;;;2.72;;
65182;SDS011;51771;51.068;-1.780;2023-06-14T14:30:01;5.75;;;2.92;;
65182;SDS011;51771;51.068;-1.780;2023-06-14T14:32:26;5.90;;;2.90;;
65182;SDS011;51771;51.068;-1.780;2023-06-14T14:34:51;8.43;;;3.17;;
65182;SDS011;51771;51.068;-1.780;2023-06-14T14:37:16;6.63;;;2.95;;
65182;SDS011;51771;51.068;-1.780;2023-06-14T14:39:43;5.15;;;2.95;;